Time;durP1;ratioP1;P1;durP2;ratioP2;P2;SDS_P1;SDS_P2;PMS_P1;PMS_P2;Temp;Humidity;BMP_temperature;BMP_pressure;BME280_temperature;BME280_humidity;BME280_pressure;Samples;Min_cycle;Max_cycle;Signal;HPM_P1;HPM_P2
2023/04/28 00:00:55;;;;;;;;;;;7.60;99.90;;;;;;5110024;28;20022;-68
2023/04/28 00:03:20;;;;;;;;;;;7.60;99.90;;;;;;5112950;28;19920;-68
2023/04/28 00:05:48;;;;;;;;;;;7.50;99.90;;;;;;5113191;28;19927;-68
2023/04/28 00:08:13;;;;;;;;;;;7.50;99.90;;;;;;5113381;28;20037;-68
2023/04/28 00:10:39;;;;;;;;;;;7.50;99.90;;;;;;5107871;28;20002;-68
2023/04/28 00:13:05;;;;;;;;;;;7.50;99.90;;;;;;5107698;28;19920;-68
2023/04/28 00:15:30;;;;;;;;;;;7.50;99.90;;;;;;5114250;28;19932;-67
2023/04/28 00:17:55;;;;;;;;;;;7.50;99.90;;;;;;5106525;28;19920;-68
2023/04/28 00:20:21;;;;;;;;;;;7.50;99.90;;;;;;5103814;28;20397;-68
2023/04/28 00:22:48;;;;;;;;;;;7.40;99.90;;;;;;5112601;28;19946;-68
2023/04/28 00:25:13;;;;;;;;;;;7.40;99.90;;;;;;5114089;28;19920;-68
2023/04/28 00:27:39;;;;;;;;;;;7.40;99.90;;;;;;5098443;28;20007;-68
2023/04/28 00:30:05;;;;;;;;;;;7.40;99.90;;;;;;5106624;28;19923;-68
2023/04/28 00:32:30;;;;;;;;;;;7.40;99.90;;;;;;5129932;27;19923;-68
2023/04/28 00:34:56;;;;;;;;;;;7.40;99.90;;;;;;5105126;27;19923;-67
2023/04/28 00:37:21;;;;;;;;;;;7.40;99.90;;;;;;5100372;28;19924;-68
2023/04/28 00:39:47;;;;;;;;;;;7.30;99.90;;;;;;5112030;28;19965;-68
2023/04/28 00:42:15;;;;;;;;;;;7.30;99.90;;;;;;5113357;28;19926;-68
2023/04/28 00:44:41;;;;;;;;;;;7.30;99.90;;;;;;5108005;28;19920;-68
2023/04/28 00:47:10;;;;;;;;;;;7.30;99.90;;;;;;5107712;28;19927;-68
2023/04/28 00:49:36;;;;;;;;;;;7.20;99.90;;;;;;5112978;28;19920;-68
2023/04/28 00:52:03;;;;;;;;;;;7.20;99.90;;;;;;5108973;28;19920;-68
2023/04/28 00:54:29;;;;;;;;;;;7.20;99.90;;;;;;5111422;28;20278;-68
2023/04/28 00:56:54;;;;;;;;;;;7.20;99.90;;;;;;5112734;28;19965;-68
2023/04/28 00:59:20;;;;;;;;;;;7.20;99.90;;;;;;5113207;28;19927;-68
2023/04/28 01:01:45;;;;;;;;;;;7.20;99.90;;;;;;5097565;28;19928;-68
2023/04/28 01:04:11;;;;;;;;;;;7.20;99.90;;;;;;5105985;28;20393;-68
2023/04/28 01:06:37;;;;;;;;;;;7.20;99.90;;;;;;5113065;28;19924;-68
2023/04/28 01:09:04;;;;;;;;;;;7.20;99.90;;;;;;5104331;28;19972;-68
2023/04/28 01:11:30;;;;;;;;;;;7.20;99.90;;;;;;5108395;28;19920;-68
2023/04/28 01:13:56;;;;;;;;;;;7.20;99.90;;;;;;5112738;28;20426;-68
2023/04/28 01:16:21;;;;;;;;;;;7.20;99.90;;;;;;5107602;28;19928;-68
2023/04/28 01:18:47;;;;;;;;;;;7.20;99.90;;;;;;5104061;28;20471;-68
2023/04/28 01:21:12;;;;;;;;;;;7.20;99.90;;;;;;5112491;28;19959;-68
2023/04/28 01:23:38;;;;;;;;;;;7.20;99.90;;;;;;5112789;28;19972;-68
2023/04/28 01:26:03;;;;;;;;;;;7.20;99.90;;;;;;5096437;28;19938;-68
2023/04/28 01:28:29;;;;;;;;;;;7.20;99.90;;;;;;5108264;28;19920;-68
2023/04/28 01:30:55;;;;;;;;;;;7.20;99.90;;;;;;5112496;28;20396;-68
2023/04/28 01:33:21;;;;;;;;;;;7.20;99.90;;;;;;5107635;28;22364;-68
2023/04/28 01:35:46;;;;;;;;;;;7.20;99.90;;;;;;5101555;28;20014;-68
2023/04/28 01:38:11;;;;;;;;;;;7.20;99.90;;;;;;5112114;28;20011;-68
2023/04/28 01:40:37;;;;;;;;;;;7.20;99.90;;;;;;5112324;28;19919;-68
2023/04/28 01:43:02;;;;;;;;;;;7.10;99.90;;;;;;5094648;28;20369;-67
2023/04/28 01:45:28;;;;;;;;;;;7.10;99.90;;;;;;5108272;28;19928;-68
2023/04/28 01:47:53;;;;;;;;;;;7.10;99.90;;;;;;5112119;28;20413;-68
2023/04/28 01:50:19;;;;;;;;;;;7.10;99.90;;;;;;5105385;28;19919;-68
2023/04/28 01:52:44;;;;;;;;;;;7.10;99.90;;;;;;5109997;28;19976;-68
2023/04/28 01:55:10;;;;;;;;;;;7.10;99.90;;;;;;5111311;28;19927;-68
2023/04/28 01:57:36;;;;;;;;;;;7.10;99.90;;;;;;5112141;28;19928;-68
2023/04/28 02:00:02;;;;;;;;;;;7.10;99.90;;;;;;5102244;28;19965;-68
2023/04/28 02:02:27;;;;;;;;;;;7.10;99.90;;;;;;5111993;28;20018;-68
2023/04/28 02:04:53;;;;;;;;;;;7.10;99.90;;;;;;5112314;28;20434;-68
2023/04/28 02:07:18;;;;;;;;;;;7.10;99.90;;;;;;5108747;28;19927;-68
2023/04/28 02:09:44;;;;;;;;;;;7.10;99.90;;;;;;5097633;28;20010;-68
2023/04/28 02:12:09;;;;;;;;;;;7.10;99.90;;;;;;5097428;28;19924;-68
2023/04/28 02:14:35;;;;;;;;;;;7.10;99.90;;;;;;5112015;28;19955;-68
2023/04/28 02:17:02;;;;;;;;;;;7.10;99.90;;;;;;5112306;28;20014;-69
2023/04/28 02:19:27;;;;;;;;;;;7.00;99.90;;;;;;5100775;28;20076;-68
2023/04/28 02:21:52;;;;;;;;;;;7.00;99.90;;;;;;5110900;28;19963;-68
2023/04/28 02:24:18;;;;;;;;;;;6.90;99.90;;;;;;5112079;28;19972;-68
2023/04/28 02:26:43;;;;;;;;;;;6.90;99.90;;;;;;5100390;28;19934;-68
2023/04/28 02:29:09;;;;;;;;;;;6.90;99.90;;;;;;5111489;28;19989;-68
2023/04/28 02:31:34;;;;;;;;;;;6.90;99.90;;;;;;5111781;28;19923;-68
2023/04/28 02:34:00;;;;;;;;;;;6.90;99.90;;;;;;5112112;28;20343;-68
2023/04/28 02:36:26;;;;;;;;;;;6.80;99.90;;;;;;5100808;28;20332;-68
2023/04/28 02:38:52;;;;;;;;;;;6.80;99.90;;;;;;5107512;28;19926;-68
2023/04/28 02:41:17;;;;;;;;;;;6.80;99.90;;;;;;5126422;28;20292;-68
2023/04/28 02:43:43;;;;;;;;;;;6.80;99.90;;;;;;5103119;28;19920;-68
2023/04/28 02:46:08;;;;;;;;;;;6.80;99.90;;;;;;5111930;28;19920;-68
2023/04/28 02:48:35;;;;;;;;;;;6.80;99.90;;;;;;5114609;28;19977;-68
2023/04/28 02:51:01;;;;;;;;;;;6.80;99.90;;;;;;5110781;28;19964;-68
2023/04/28 02:53:26;;;;;;;;;;;6.90;99.90;;;;;;5104322;28;20019;-68
2023/04/28 02:55:52;;;;;;;;;;;6.90;99.90;;;;;;5110501;28;19967;-68
2023/04/28 02:58:18;;;;;;;;;;;6.90;99.90;;;;;;5110497;28;19920;-68
2023/04/28 03:00:43;;;;;;;;;;;6.90;99.90;;;;;;5103671;28;19927;-68
2023/04/28 03:03:09;;;;;;;;;;;6.90;99.90;;;;;;5107884;28;20010;-68
2023/04/28 03:05:34;;;;;;;;;;;6.90;99.90;;;;;;5115144;28;19924;-68
2023/04/28 03:08:00;;;;;;;;;;;6.90;99.90;;;;;;5102146;28;19969;-68
2023/04/28 03:10:25;;;;;;;;;;;6.80;99.90;;;;;;5103474;28;19931;-68
2023/04/28 03:12:51;;;;;;;;;;;6.80;99.90;;;;;;5113789;28;20004;-68
2023/04/28 03:15:16;;;;;;;;;;;6.80;99.90;;;;;;5112751;28;19931;-68
2023/04/28 03:17:42;;;;;;;;;;;6.80;99.90;;;;;;5102504;28;20271;-68
2023/04/28 03:20:08;;;;;;;;;;;6.80;99.90;;;;;;5114964;28;19920;-68
2023/04/28 03:22:34;;;;;;;;;;;6.90;99.90;;;;;;5114837;28;19920;-68
2023/04/28 03:24:59;;;;;;;;;;;6.90;99.90;;;;;;5112387;28;19923;-68
2023/04/28 03:27:25;;;;;;;;;;;6.80;99.90;;;;;;5110476;28;19927;-69
2023/04/28 03:29:51;;;;;;;;;;;6.90;99.90;;;;;;5114489;28;19973;-69
2023/04/28 03:32:16;;;;;;;;;;;6.90;99.90;;;;;;5110843;28;19927;-69
2023/04/28 03:34:42;;;;;;;;;;;6.90;99.90;;;;;;5108018;28;19930;-69
2023/04/28 03:37:07;;;;;;;;;;;6.90;99.90;;;;;;5101406;28;19927;-70
2023/04/28 03:39:33;;;;;;;;;;;6.90;99.90;;;;;;5110274;28;20018;-68
2023/04/28 03:41:58;;;;;;;;;;;6.80;99.90;;;;;;5115041;28;19920;-69
2023/04/28 03:44:24;;;;;;;;;;;6.80;99.90;;;;;;5114738;28;20075;-69
2023/04/28 03:46:49;;;;;;;;;;;6.80;99.90;;;;;;5103171;27;19935;-69
2023/04/28 03:49:15;;;;;;;;;;;6.80;99.90;;;;;;5104316;27;20014;-69
2023/04/28 03:51:40;;;;;;;;;;;6.80;99.90;;;;;;5097214;28;19967;-69
2023/04/28 03:54:06;;;;;;;;;;;6.80;99.90;;;;;;5112312;28;20340;-69
2023/04/28 03:56:32;;;;;;;;;;;6.80;99.90;;;;;;5114653;28;19920;-70
2023/04/28 03:58:57;;;;;;;;;;;6.80;99.90;;;;;;5102505;27;20266;-69
2023/04/28 04:01:23;;;;;;;;;;;6.80;99.90;;;;;;5112476;28;19927;-69
2023/04/28 04:03:48;;;;;;;;;;;6.80;99.90;;;;;;5114309;28;19920;-69
2023/04/28 04:06:14;;;;;;;;;;;6.80;99.90;;;;;;5104531;28;19924;-69
2023/04/28 04:08:40;;;;;;;;;;;6.80;99.90;;;;;;5111950;28;19920;-69
2023/04/28 04:11:05;;;;;;;;;;;6.80;99.90;;;;;;5112883;28;19920;-69
2023/04/28 04:13:31;;;;;;;;;;;6.80;99.90;;;;;;5112786;28;20060;-69
2023/04/28 04:15:56;;;;;;;;;;;6.80;99.90;;;;;;5108694;28;19924;-69
2023/04/28 04:18:22;;;;;;;;;;;6.80;99.90;;;;;;5112627;28;19920;-69
2023/04/28 04:20:48;;;;;;;;;;;6.80;99.90;;;;;;5113907;28;19926;-69
2023/04/28 04:23:14;;;;;;;;;;;6.80;99.90;;;;;;5110207;28;19926;-69
2023/04/28 04:25:40;;;;;;;;;;;6.80;99.90;;;;;;5106880;28;19924;-70
2023/04/28 04:28:05;;;;;;;;;;;6.90;99.90;;;;;;5095415;28;19927;-69
2023/04/28 04:30:30;;;;;;;;;;;6.90;99.90;;;;;;5099078;28;20018;-69
2023/04/28 04:32:56;;;;;;;;;;;6.90;99.90;;;;;;5099865;28;19920;-70
2023/04/28 04:35:21;;;;;;;;;;;6.90;99.90;;;;;;5102900;28;19959;-69
2023/04/28 04:37:47;;;;;;;;;;;7.00;99.90;;;;;;5096343;28;19937;-69
2023/04/28 04:40:12;;;;;;;;;;;7.00;99.90;;;;;;5093021;28;19927;-70
2023/04/28 04:42:38;;;;;;;;;;;7.00;99.90;;;;;;5097143;28;20690;-69
2023/04/28 04:45:04;;;;;;;;;;;7.00;99.90;;;;;;5097983;28;19928;-70
2023/04/28 04:47:29;;;;;;;;;;;7.00;99.90;;;;;;5098375;28;20378;-69
2023/04/28 04:49:55;;;;;;;;;;;7.00;99.90;;;;;;5095309;28;19928;-68
2023/04/28 04:52:20;;;;;;;;;;;7.00;99.90;;;;;;5099310;28;19920;-69
2023/04/28 04:54:46;;;;;;;;;;;7.10;99.90;;;;;;5099438;28;20363;-69
2023/04/28 04:57:11;;;;;;;;;;;7.10;99.90;;;;;;5098110;28;19927;-69
2023/04/28 04:59:37;;;;;;;;;;;7.10;99.90;;;;;;5099998;28;20395;-69
2023/04/28 05:02:02;;;;;;;;;;;7.20;99.90;;;;;;5102858;28;19972;-69
2023/04/28 05:04:31;;;;;;;;;;;7.20;99.90;;;;;;5096690;28;19919;-69
2023/04/28 05:06:56;;;;;;;;;;;7.20;99.90;;;;;;5098979;28;19919;-69
2023/04/28 05:09:22;;;;;;;;;;;7.20;99.90;;;;;;5100090;28;20017;-69
2023/04/28 05:11:48;;;;;;;;;;;7.30;99.90;;;;;;5101830;28;19927;-69
2023/04/28 05:14:13;;;;;;;;;;;7.30;99.90;;;;;;5097649;28;19933;-69
2023/04/28 05:16:40;;;;;;;;;;;7.30;99.90;;;;;;5098316;28;19920;-69
2023/04/28 05:19:05;;;;;;;;;;;7.40;99.90;;;;;;5101039;28;19924;-69
2023/04/28 05:21:31;;;;;;;;;;;7.40;99.90;;;;;;5098803;28;19981;-69
2023/04/28 05:23:56;;;;;;;;;;;7.40;99.90;;;;;;5100289;28;19935;-69
2023/04/28 05:26:22;;;;;;;;;;;7.50;99.90;;;;;;5098899;28;19920;-69
2023/04/28 05:28:48;;;;;;;;;;;7.50;99.90;;;;;;5101110;28;19955;-69
2023/04/28 05:31:13;;;;;;;;;;;7.50;99.90;;;;;;5095447;28;19920;-69
2023/04/28 05:33:39;;;;;;;;;;;7.60;99.90;;;;;;5099346;28;19973;-69
2023/04/28 05:36:04;;;;;;;;;;;7.60;99.90;;;;;;5100921;28;19931;-69
2023/04/28 05:38:31;;;;;;;;;;;7.50;99.90;;;;;;5100718;28;19920;-69
2023/04/28 05:40:57;;;;;;;;;;;7.60;99.90;;;;;;5096486;28;19920;-69
2023/04/28 05:43:22;;;;;;;;;;;7.60;99.90;;;;;;5103902;28;19926;-69
2023/04/28 05:45:48;;;;;;;;;;;7.60;99.90;;;;;;5107984;28;19928;-69
2023/04/28 05:48:13;;;;;;;;;;;7.60;99.90;;;;;;5094598;28;20006;-69
2023/04/28 05:50:39;;;;;;;;;;;7.70;99.90;;;;;;5105699;28;19919;-69
2023/04/28 05:53:06;;;;;;;;;;;7.70;99.90;;;;;;5095746;28;19924;-69
2023/04/28 05:55:32;;;;;;;;;;;7.80;99.90;;;;;;5092762;28;19928;-66
2023/04/28 05:57:58;;;;;;;;;;;7.80;99.90;;;;;;5110180;28;19951;-67
2023/04/28 06:00:24;;;;;;;;;;;7.80;99.90;;;;;;5112418;28;20437;-67
2023/04/28 06:02:49;;;;;;;;;;;7.90;99.90;;;;;;5097483;28;19920;-67
2023/04/28 06:05:15;;;;;;;;;;;7.90;99.90;;;;;;5107326;28;19950;-67
2023/04/28 06:07:40;;;;;;;;;;;7.90;99.90;;;;;;5108951;28;19927;-67
2023/04/28 06:10:06;;;;;;;;;;;8.00;99.90;;;;;;5103007;28;19932;-65
2023/04/28 06:12:32;;;;;;;;;;;8.00;99.90;;;;;;5094759;28;20302;-67
2023/04/28 06:14:57;;;;;;;;;;;8.00;99.90;;;;;;5096701;28;20031;-67
2023/04/28 06:17:23;;;;;;;;;;;8.00;99.90;;;;;;5098787;28;19923;-65
2023/04/28 06:19:50;;;;;;;;;;;8.10;99.90;;;;;;5101996;28;20054;-67
2023/04/28 06:22:15;;;;;;;;;;;8.10;99.90;;;;;;5100884;28;20382;-67
2023/04/28 06:24:41;;;;;;;;;;;8.10;99.90;;;;;;5109126;28;19923;-69
2023/04/28 06:27:07;;;;;;;;;;;8.20;99.90;;;;;;5108242;28;19947;-69
2023/04/28 06:29:32;;;;;;;;;;;8.20;99.90;;;;;;5100201;28;20433;-69
2023/04/28 06:31:58;;;;;;;;;;;8.20;99.90;;;;;;5102052;28;20072;-69
2023/04/28 06:34:26;;;;;;;;;;;8.20;99.90;;;;;;5109007;28;19931;-69
2023/04/28 06:36:51;;;;;;;;;;;8.30;99.90;;;;;;5107296;28;19927;-69
2023/04/28 06:39:17;;;;;;;;;;;8.30;99.90;;;;;;5103251;28;19920;-69
2023/04/28 06:41:43;;;;;;;;;;;8.30;99.90;;;;;;5114312;28;19924;-69
2023/04/28 06:44:09;;;;;;;;;;;8.30;99.90;;;;;;5116018;28;19951;-69
2023/04/28 06:46:36;;;;;;;;;;;8.30;99.90;;;;;;5100768;27;19924;-69
2023/04/28 06:49:01;;;;;;;;;;;8.40;99.90;;;;;;5114688;27;19923;-69
2023/04/28 06:51:27;;;;;;;;;;;8.40;99.90;;;;;;5115975;28;20324;-69
2023/04/28 06:53:53;;;;;;;;;;;8.40;99.90;;;;;;5114352;27;20398;-69
2023/04/28 06:56:18;;;;;;;;;;;8.50;99.90;;;;;;5113573;28;19924;-70
2023/04/28 06:58:44;;;;;;;;;;;8.50;99.90;;;;;;5132201;27;19926;-66
2023/04/28 07:01:09;;;;;;;;;;;8.60;99.90;;;;;;5114650;27;19973;-70
2023/04/28 07:03:35;;;;;;;;;;;8.60;99.90;;;;;;5109366;28;19923;-69
2023/04/28 07:06:02;;;;;;;;;;;8.70;99.90;;;;;;5109870;28;19959;-68
2023/04/28 07:08:29;;;;;;;;;;;8.70;99.90;;;;;;5099959;28;19934;-69
2023/04/28 07:10:55;;;;;;;;;;;8.80;99.90;;;;;;5101553;28;19927;-69
2023/04/28 07:13:20;;;;;;;;;;;8.90;99.90;;;;;;5111141;28;19920;-69
2023/04/28 07:15:46;;;;;;;;;;;9.00;99.90;;;;;;5112841;28;19923;-69
2023/04/28 07:18:12;;;;;;;;;;;9.10;99.90;;;;;;5100357;28;19973;-68
2023/04/28 07:20:37;;;;;;;;;;;9.10;99.90;;;;;;5102039;28;19972;-69
2023/04/28 07:23:02;;;;;;;;;;;9.10;99.90;;;;;;5100568;28;19935;-69
2023/04/28 07:25:28;;;;;;;;;;;9.10;99.90;;;;;;5103646;28;19982;-69
2023/04/28 07:27:53;;;;;;;;;;;9.10;99.90;;;;;;5099993;28;19920;-68
2023/04/28 07:30:19;;;;;;;;;;;9.20;99.90;;;;;;5100852;28;20338;-69
2023/04/28 07:32:45;;;;;;;;;;;9.30;99.90;;;;;;5101706;28;19931;-69
2023/04/28 07:35:10;;;;;;;;;;;9.50;99.90;;;;;;5092674;28;19924;-69
2023/04/28 07:37:36;;;;;;;;;;;9.70;99.90;;;;;;5103600;28;19920;-69
2023/04/28 07:40:02;;;;;;;;;;;9.80;99.90;;;;;;5114764;28;19923;-69
2023/04/28 07:42:27;;;;;;;;;;;10.00;99.90;;;;;;5103016;28;19920;-69
2023/04/28 07:44:53;;;;;;;;;;;10.10;99.90;;;;;;5104474;28;19920;-69
2023/04/28 07:47:18;;;;;;;;;;;10.20;99.90;;;;;;5113237;28;20068;-69
2023/04/28 07:49:44;;;;;;;;;;;10.20;99.90;;;;;;5104532;28;19926;-69
2023/04/28 07:52:10;;;;;;;;;;;10.30;99.90;;;;;;5101697;28;19923;-69
2023/04/28 07:54:35;;;;;;;;;;;10.40;99.90;;;;;;5102797;28;19939;-69
2023/04/28 07:57:04;;;;;;;;;;;10.40;99.90;;;;;;5100345;28;19924;-69
2023/04/28 07:59:31;;;;;;;;;;;10.50;99.90;;;;;;5100172;28;19964;-69
2023/04/28 08:01:56;;;;;;;;;;;10.50;99.90;;;;;;5066193;22;19978;-72
2023/04/28 08:04:22;;;;;;;;;;;10.50;99.90;;;;;;5037316;28;19925;-68
2023/04/28 08:06:47;;;;;;;;;;;10.60;99.90;;;;;;5038181;28;20398;-69
2023/04/28 08:09:13;;;;;;;;;;;10.70;99.90;;;;;;5030708;28;19921;-69
2023/04/28 08:11:38;;;;;;;;;;;10.70;99.90;;;;;;5044918;28;20313;-69
2023/04/28 08:14:04;;;;;;;;;;;10.80;99.90;;;;;;5045480;28;19928;-68
2023/04/28 08:16:30;;;;;;;;;;;10.80;99.90;;;;;;5044298;28;20228;-69
2023/04/28 08:18:56;;;;;;;;;;;10.80;99.90;;;;;;5030868;28;19928;-69
2023/04/28 08:21:21;;;;;;;;;;;10.80;99.90;;;;;;5026283;28;19921;-68
2023/04/28 08:23:47;;;;;;;;;;;10.90;99.90;;;;;;5031831;28;19927;-69
2023/04/28 08:26:12;;;;;;;;;;;11.00;99.90;;;;;;5024161;28;20444;-69
2023/04/28 08:28:38;;;;;;;;;;;11.00;99.90;;;;;;5041045;28;19928;-69
2023/04/28 08:31:05;;;;;;;;;;;11.20;99.90;;;;;;5053032;28;19927;-69
2023/04/28 08:33:30;;;;;;;;;;;11.30;99.90;;;;;;5011788;28;20876;-68
2023/04/28 08:35:56;;;;;;;;;;;11.40;99.90;;;;;;5035340;28;19921;-67
2023/04/28 08:38:23;;;;;;;;;;;11.60;99.90;;;;;;5025362;28;19932;-69
2023/04/28 08:40:49;;;;;;;;;;;11.80;99.90;;;;;;5034216;28;20561;-69
2023/04/28 08:43:15;;;;;;;;;;;11.90;99.90;;;;;;5023586;28;19922;-68
2023/04/28 08:45:44;;;;;;;;;;;12.00;99.90;;;;;;5023938;28;19925;-67
2023/04/28 08:48:18;;;;;;;;;;;12.10;99.90;;;;;;5053022;28;19952;-68
2023/04/28 08:50:48;;;;;;;;;;;12.20;99.90;;;;;;5018755;28;20272;-68
2023/04/28 08:53:16;;;;;;;;;;;12.10;99.90;;;;;;5057346;28;19948;-65
2023/04/28 08:55:42;;;;;;;;;;;12.20;99.90;;;;;;5032200;28;19944;-65
2023/04/28 08:58:08;;;;;;;;;;;12.10;99.90;;;;;;5031848;28;20051;-66
2023/04/28 09:00:35;;;;;;;;;;;12.20;99.90;;;;;;5039284;28;20054;-65
2023/04/28 09:03:01;;;;;;;;;;;12.40;99.90;;;;;;5044031;28;20333;-65
2023/04/28 09:05:26;;;;;;;;;;;12.50;99.90;;;;;;5049432;28;19974;-66
2023/04/28 09:07:52;;;;;;;;;;;12.70;99.90;;;;;;5040188;28;19921;-65
2023/04/28 09:10:18;;;;;;;;;;;12.80;99.90;;;;;;5042709;28;19925;-66
2023/04/28 09:12:44;;;;;;;;;;;13.00;99.90;;;;;;5027728;28;19948;-65
2023/04/28 09:15:10;;;;;;;;;;;13.20;99.90;;;;;;5017460;28;19921;-65
2023/04/28 09:17:50;;;;;;;;;;;13.50;99.90;;;;;;5040105;28;19925;-65
2023/04/28 09:20:23;;;;;;;;;;;13.60;99.90;;;;;;5044416;28;19924;-64
2023/04/28 09:22:49;;;;;;;;;;;13.70;99.90;;;;;;5029604;28;19925;-67
2023/04/28 09:25:15;;;;;;;;;;;13.70;99.90;;;;;;5037231;28;19920;-68
2023/04/28 09:27:40;;;;;;;;;;;13.70;99.90;;;;;;5039456;28;20874;-68
2023/04/28 09:30:07;;;;;;;;;;;13.60;99.90;;;;;;5041609;28;19920;-68
2023/04/28 09:32:32;;;;;;;;;;;13.60;99.90;;;;;;5042744;28;19921;-68
2023/04/28 09:34:58;;;;;;;;;;;13.50;99.90;;;;;;5051849;28;20500;-68
2023/04/28 09:37:30;;;;;;;;;;;13.40;99.90;;;;;;5040828;28;19936;-68
2023/04/28 09:39:58;;;;;;;;;;;13.40;99.90;;;;;;5041918;28;19920;-68
2023/04/28 09:42:34;;;;;;;;;;;13.40;99.90;;;;;;5016803;28;19932;-68
2023/04/28 09:45:01;;;;;;;;;;;13.50;99.90;;;;;;5042544;28;19956;-68
2023/04/28 09:47:27;;;;;;;;;;;13.50;99.90;;;;;;5044442;28;19920;-69
2023/04/28 09:49:56;;;;;;;;;;;13.60;99.90;;;;;;5042937;28;19928;-69
2023/04/28 09:52:23;;;;;;;;;;;13.70;99.90;;;;;;5046160;28;19966;-70
2023/04/28 09:54:52;;;;;;;;;;;13.90;99.90;;;;;;5022461;28;19976;-69
2023/04/28 09:57:18;;;;;;;;;;;14.10;99.90;;;;;;5012378;28;20391;-69
2023/04/28 09:59:46;;;;;;;;;;;14.30;99.90;;;;;;5046677;28;20360;-69
2023/04/28 10:02:12;;;;;;;;;;;14.50;99.90;;;;;;5041970;28;19924;-69
2023/04/28 10:04:38;;;;;;;;;;;14.60;99.90;;;;;;5028172;28;20259;-71
2023/04/28 10:07:04;;;;;;;;;;;14.80;99.90;;;;;;5039135;28;19928;-67
2023/04/28 10:09:31;;;;;;;;;;;15.00;99.90;;;;;;5040517;28;19925;-68
2023/04/28 10:11:56;;;;;;;;;;;15.10;99.90;;;;;;5040632;28;20008;-68
2023/04/28 10:14:23;;;;;;;;;;;15.30;99.90;;;;;;5037725;28;20027;-69
2023/04/28 10:16:50;;;;;;;;;;;15.30;99.90;;;;;;5046048;28;19929;-68
2023/04/28 10:19:16;;;;;;;;;;;15.50;99.90;;;;;;5039316;28;19925;-68
2023/04/28 10:21:46;;;;;;;;;;;15.50;99.90;;;;;;5031496;28;19932;-69
2023/04/28 10:24:17;;;;;;;;;;;15.60;99.90;;;;;;5027367;28;19963;-69
2023/04/28 10:27:05;;;;;;;;;;;15.70;99.90;;;;;;5031651;28;20270;-69
2023/04/28 10:29:33;;;;;;;;;;;15.70;99.90;;;;;;5016436;28;19972;-69
2023/04/28 10:32:18;;;;;;;;;;;15.70;99.90;;;;;;5047485;28;19946;-67
2023/04/28 10:34:44;;;;;;;;;;;15.70;99.90;;;;;;5043394;28;19921;-67
2023/04/28 10:37:09;;;;;;;;;;;15.50;99.90;;;;;;5034571;28;19925;-67
2023/04/28 10:39:35;;;;;;;;;;;15.50;99.90;;;;;;5050139;28;19944;-65
2023/04/28 10:42:01;;;;;;;;;;;15.30;99.90;;;;;;5029092;28;19928;-67
2023/04/28 10:44:26;;;;;;;;;;;15.30;99.90;;;;;;5039048;28;19921;-67
2023/04/28 10:47:06;;;;;;;;;;;15.30;99.90;;;;;;5033223;28;19921;-67
2023/04/28 10:49:50;;;;;;;;;;;15.20;99.90;;;;;;5050426;28;20413;-70
2023/04/28 10:52:34;;;;;;;;;;;15.10;99.90;;;;;;5033320;28;19970;-69
2023/04/28 10:55:18;;;;;;;;;;;15.00;99.90;;;;;;5074649;28;19940;-70
2023/04/28 10:57:44;;;;;;;;;;;14.90;99.90;;;;;;5045941;28;20063;-70
2023/04/28 11:00:26;;;;;;;;;;;14.80;99.90;;;;;;5046405;28;20012;-68
2023/04/28 11:02:51;;;;;;;;;;;14.80;99.90;;;;;;5035563;28;19920;-69
2023/04/28 11:05:17;;;;;;;;;;;14.80;99.90;;;;;;5021334;28;19921;-69
2023/04/28 11:08:03;;;;;;;;;;;14.90;99.90;;;;;;5028264;28;19921;-68
2023/04/28 11:10:48;;;;;;;;;;;15.00;99.90;;;;;;5017077;28;19925;-69
2023/04/28 11:13:30;;;;;;;;;;;15.10;99.90;;;;;;5034568;28;19921;-70
2023/04/28 11:16:05;;;;;;;;;;;15.20;99.90;;;;;;5045784;28;19920;-73
2023/04/28 11:18:51;;;;;;;;;;;15.40;99.90;;;;;;5036363;28;19925;-68
2023/04/28 11:21:17;;;;;;;;;;;15.50;99.90;;;;;;5048783;28;19920;-69
2023/04/28 11:23:43;;;;;;;;;;;15.70;99.90;;;;;;5034210;28;19928;-69
2023/04/28 11:26:09;;;;;;;;;;;15.50;99.90;;;;;;5029292;28;19929;-68
2023/04/28 11:28:36;;;;;;;;;;;15.60;99.90;;;;;;5045338;28;19921;-67
2023/04/28 11:31:18;;;;;;;;;;;15.50;99.90;;;;;;5042356;28;19928;-68
2023/04/28 11:33:44;;;;;;;;;;;15.40;99.90;;;;;;5012172;28;19920;-68
2023/04/28 11:36:26;;;;;;;;;;;15.40;99.90;;;;;;5036281;28;19928;-67
2023/04/28 11:38:52;;;;;;;;;;;15.40;99.90;;;;;;5049935;28;19943;-68
2023/04/28 11:41:17;;;;;;;;;;;15.40;99.90;;;;;;5047694;28;19921;-68
2023/04/28 11:43:43;;;;;;;;;;;15.50;99.90;;;;;;5034579;28;19928;-68
2023/04/28 11:46:09;;;;;;;;;;;15.50;99.90;;;;;;5039877;28;19932;-69
2023/04/28 11:48:34;;;;;;;;;;;15.60;99.90;;;;;;5027050;28;19921;-67
2023/04/28 11:51:00;;;;;;;;;;;15.60;99.90;;;;;;5053885;28;20378;-68
2023/04/28 11:53:44;;;;;;;;;;;15.60;99.90;;;;;;5060918;28;19935;-68
2023/04/28 11:56:12;;;;;;;;;;;15.60;99.90;;;;;;5043323;28;19928;-68
2023/04/28 11:58:37;;;;;;;;;;;15.30;99.90;;;;;;5027888;28;19925;-68
2023/04/28 12:01:06;;;;;;;;;;;15.10;99.90;;;;;;5033882;28;20275;-67
2023/04/28 12:03:32;;;;;;;;;;;15.00;99.90;;;;;;5033126;28;19947;-68
2023/04/28 12:05:57;;;;;;;;;;;14.90;99.90;;;;;;5043491;28;20015;-68
2023/04/28 12:08:27;;;;;;;;;;;14.90;99.90;;;;;;5027495;28;20009;-68
2023/04/28 12:11:13;;;;;;;;;;;14.90;99.90;;;;;;5045029;28;19921;-69
2023/04/28 12:13:38;;;;;;;;;;;15.00;99.90;;;;;;5026102;28;19927;-68
2023/04/28 12:16:05;;;;;;;;;;;15.10;99.90;;;;;;5045372;28;20352;-68
2023/04/28 12:18:31;;;;;;;;;;;15.20;99.90;;;;;;5049245;28;19929;-69
2023/04/28 12:20:56;;;;;;;;;;;15.30;99.90;;;;;;5033528;28;19921;-69
2023/04/28 12:23:34;;;;;;;;;;;15.30;99.90;;;;;;5044853;28;19921;-68
2023/04/28 12:26:01;;;;;;;;;;;15.20;99.90;;;;;;5053905;28;19927;-66
2023/04/28 12:28:39;;;;;;;;;;;15.10;99.90;;;;;;5041833;28;19921;-68
2023/04/28 12:31:07;;;;;;;;;;;15.20;99.90;;;;;;5024674;28;20019;-68
2023/04/28 12:33:36;;;;;;;;;;;15.30;99.90;;;;;;5032812;28;20310;-66
2023/04/28 12:36:02;;;;;;;;;;;15.40;99.90;;;;;;5041480;28;19974;-68
2023/04/28 12:38:28;;;;;;;;;;;15.60;99.90;;;;;;5044138;28;19974;-67
2023/04/28 12:40:53;;;;;;;;;;;15.80;99.90;;;;;;5033851;28;19925;-66
2023/04/28 12:43:21;;;;;;;;;;;15.80;99.90;;;;;;5017354;28;19929;-68
2023/04/28 12:45:48;;;;;;;;;;;15.70;99.90;;;;;;5026960;28;19921;-69
2023/04/28 12:48:13;;;;;;;;;;;15.80;99.90;;;;;;5045686;28;19952;-69
2023/04/28 12:50:39;;;;;;;;;;;15.90;99.90;;;;;;5054392;28;19931;-67
2023/04/28 12:53:05;;;;;;;;;;;15.80;99.90;;;;;;5048682;28;20330;-67
2023/04/28 12:55:30;;;;;;;;;;;15.80;99.90;;;;;;5049193;28;19921;-68
2023/04/28 12:57:56;;;;;;;;;;;15.60;99.90;;;;;;5034807;28;19933;-68
2023/04/28 13:00:23;;;;;;;;;;;15.40;99.90;;;;;;5019482;28;20438;-69
2023/04/28 13:02:49;;;;;;;;;;;15.30;99.90;;;;;;5022222;28;20395;-68
2023/04/28 13:05:14;;;;;;;;;;;15.20;99.90;;;;;;5023201;28;19921;-68
2023/04/28 13:07:40;;;;;;;;;;;15.20;99.90;;;;;;5022503;28;19931;-68
2023/04/28 13:10:06;;;;;;;;;;;15.20;99.90;;;;;;5036825;28;19921;-69
2023/04/28 13:12:32;;;;;;;;;;;15.20;99.90;;;;;;5020792;28;19928;-69
2023/04/28 13:15:00;;;;;;;;;;;15.20;99.90;;;;;;5034706;28;20299;-69
2023/04/28 13:17:26;;;;;;;;;;;15.10;99.90;;;;;;5031785;28;19990;-69
2023/04/28 13:19:51;;;;;;;;;;;15.10;99.90;;;;;;5022768;28;20702;-68
2023/04/28 13:22:17;;;;;;;;;;;15.00;99.90;;;;;;5040257;28;19925;-69
2023/04/28 13:24:42;;;;;;;;;;;15.00;99.90;;;;;;5037500;28;19932;-70
2023/04/28 13:27:11;;;;;;;;;;;15.00;99.90;;;;;;5021861;28;20439;-67
2023/04/28 13:29:36;;;;;;;;;;;15.00;99.90;;;;;;5038905;28;19936;-67
2023/04/28 13:32:02;;;;;;;;;;;15.00;99.90;;;;;;5033117;28;19921;-68
2023/04/28 13:34:28;;;;;;;;;;;15.10;99.90;;;;;;5033471;28;19924;-67
2023/04/28 13:36:54;;;;;;;;;;;15.10;99.90;;;;;;5037601;28;19974;-68
2023/04/28 13:39:20;;;;;;;;;;;15.20;99.90;;;;;;5035765;28;19929;-67
2023/04/28 13:41:46;;;;;;;;;;;15.20;99.90;;;;;;5044886;28;19986;-67
2023/04/28 13:44:12;;;;;;;;;;;15.20;99.90;;;;;;5042698;28;20256;-68
2023/04/28 13:46:37;;;;;;;;;;;15.20;99.90;;;;;;5044314;28;19967;-67
2023/04/28 13:49:03;;;;;;;;;;;15.30;99.90;;;;;;5032971;28;19928;-68
2023/04/28 13:51:31;;;;;;;;;;;15.30;99.90;;;;;;5041553;28;20473;-67
2023/04/28 13:53:56;;;;;;;;;;;15.30;99.90;;;;;;5041399;28;20374;-68
2023/04/28 13:56:24;;;;;;;;;;;15.30;99.90;;;;;;5036320;28;21297;-67
2023/04/28 13:58:49;;;;;;;;;;;15.40;99.90;;;;;;5031935;28;19938;-67
2023/04/28 14:01:15;;;;;;;;;;;15.30;99.90;;;;;;5032189;28;20403;-68
2023/04/28 14:03:43;;;;;;;;;;;15.40;99.90;;;;;;5024796;28;19933;-69
2023/04/28 14:06:08;;;;;;;;;;;15.30;99.90;;;;;;5031974;28;19944;-70
2023/04/28 14:08:34;;;;;;;;;;;15.30;99.90;;;;;;5035628;28;20256;-68
2023/04/28 14:11:00;;;;;;;;;;;15.20;99.90;;;;;;5030331;28;19979;-69
2023/04/28 14:13:25;;;;;;;;;;;15.10;99.90;;;;;;5046805;28;19960;-68
2023/04/28 14:15:54;;;;;;;;;;;15.10;99.90;;;;;;5033818;28;19963;-68
2023/04/28 14:18:20;;;;;;;;;;;15.00;99.90;;;;;;5040897;28;19925;-68
2023/04/28 14:20:46;;;;;;;;;;;14.90;99.90;;;;;;5043129;28;19928;-68